sensor_id;sensor_type;location;lat;lon;timestamp;P1;durP1;ratioP1;P2;durP2;ratioP2
70132;SDS011;57495;49.922;7.966;2022-08-11T00:02:05;4.60;;;2.67;;
70132;SDS011;57495;49.922;7.966;2022-08-11T00:04:06;5.15;;;2.80;;
70132;SDS011;57495;49.922;7.966;2022-08-11T00:06:08;5.03;;;2.60;;
70132;SDS011;57495;49.922;7.966;2022-08-11T00:08:19;8.32;;;2.60;;
70132;SDS011;57495;49.922;7.966;2022-08-11T00:10:22;5.75;;;2.53;;
70132;SDS011;57495;49.922;7.966;2022-08-11T00:12:25;7.87;;;3.00;;
70132;SDS011;57495;49.922;7.966;2022-08-11T00:14:28;5.97;;;2.80;;
70132;SDS011;57495;49.922;7.966;2022-08-11T00:16:32;4.30;;;2.58;;
70132;SDS011;57495;49.922;7.966;2022-08-11T00:18:37;5.32;;;2.78;;
70132;SDS011;57495;49.922;7.966;2022-08-11T00:20:41;6.18;;;2.70;;
70132;SDS011;57495;49.922;7.966;2022-08-11T00:22:45;6.23;;;2.77;;
70132;SDS011;57495;49.922;7.966;2022-08-11T00:24:47;6.80;;;3.10;;
70132;SDS011;57495;49.922;7.966;2022-08-11T00:26:50;7.25;;;3.40;;
70132;SDS011;57495;49.922;7.966;2022-08-11T00:28:54;5.25;;;3.15;;
70132;SDS011;57495;49.922;7.966;2022-08-11T00:30:57;5.82;;;3.00;;
70132;SDS011;57495;49.922;7.966;2022-08-11T00:33:01;5.97;;;2.90;;
70132;SDS011;57495;49.922;7.966;2022-08-11T00:35:03;7.10;;;3.00;;
70132;SDS011;57495;49.922;7.966;2022-08-11T00:37:07;4.53;;;2.83;;
70132;SDS011;57495;49.922;7.966;2022-08-11T00:39:10;5.45;;;2.90;;
70132;SDS011;57495;49.922;7.966;2022-08-11T00:41:15;5.78;;;2.97;;
70132;SDS011;57495;49.922;7.966;2022-08-11T00:43:34;6.23;;;2.80;;
70132;SDS011;57495;49.922;7.966;2022-08-11T00:45:54;6.43;;;3.22;;
70132;SDS011;57495;49.922;7.966;2022-08-11T00:48:20;7.47;;;3.28;;
70132;SDS011;57495;49.922;7.966;2022-08-11T00:50:29;9.07;;;3.50;;
70132;SDS011;57495;49.922;7.966;2022-08-11T00:52:58;6.18;;;2.90;;
70132;SDS011;57495;49.922;7.966;2022-08-11T00:55:30;6.13;;;2.93;;
70132;SDS011;57495;49.922;7.966;2022-08-11T00:58:09;5.60;;;2.83;;
70132;SDS011;57495;49.922;7.966;2022-08-11T01:00:41;5.22;;;2.60;;
70132;SDS011;57495;49.922;7.966;2022-08-11T01:03:13;7.07;;;3.03;;
70132;SDS011;57495;49.922;7.966;2022-08-11T01:05:33;5.47;;;3.30;;
70132;SDS011;57495;49.922;7.966;2022-08-11T01:07:59;7.40;;;3.20;;
70132;SDS011;57495;49.922;7.966;2022-08-11T01:10:34;6.22;;;2.90;;
70132;SDS011;57495;49.922;7.966;2022-08-11T01:12:52;5.72;;;2.95;;
70132;SDS011;57495;49.922;7.966;2022-08-11T01:15:14;6.57;;;3.20;;
70132;SDS011;57495;49.922;7.966;2022-08-11T01:17:42;6.72;;;3.03;;
70132;SDS011;57495;49.922;7.966;2022-08-11T01:20:15;7.07;;;3.20;;
70132;SDS011;57495;49.922;7.966;2022-08-11T01:25:44;5.78;;;2.80;;
70132;SDS011;57495;49.922;7.966;2022-08-11T01:33:14;6.07;;;3.30;;
70132;SDS011;57495;49.922;7.966;2022-08-11T01:35:48;6.15;;;3.03;;
70132;SDS011;57495;49.922;7.966;2022-08-11T01:38:34;5.68;;;2.90;;
70132;SDS011;57495;49.922;7.966;2022-08-11T01:44:10;4.70;;;2.97;;
70132;SDS011;57495;49.922;7.966;2022-08-11T01:46:38;6.57;;;3.10;;
70132;SDS011;57495;49.922;7.966;2022-08-11T01:48:49;7.50;;;2.97;;
70132;SDS011;57495;49.922;7.966;2022-08-11T01:53:32;7.20;;;3.30;;
70132;SDS011;57495;49.922;7.966;2022-08-11T01:55:48;5.55;;;3.05;;
70132;SDS011;57495;49.922;7.966;2022-08-11T01:57:59;6.43;;;3.30;;
70132;SDS011;57495;49.922;7.966;2022-08-11T02:00:09;4.45;;;3.22;;
70132;SDS011;57495;49.922;7.966;2022-08-11T02:02:28;5.90;;;3.10;;
70132;SDS011;57495;49.922;7.966;2022-08-11T02:04:50;6.57;;;3.63;;
70132;SDS011;57495;49.922;7.966;2022-08-11T02:07:02;5.00;;;2.80;;
70132;SDS011;57495;49.922;7.966;2022-08-11T02:09:12;5.70;;;3.23;;
70132;SDS011;57495;49.922;7.966;2022-08-11T02:11:21;5.93;;;3.60;;
70132;SDS011;57495;49.922;7.966;2022-08-11T02:13:34;4.65;;;3.25;;
70132;SDS011;57495;49.922;7.966;2022-08-11T02:15:42;6.38;;;3.35;;
70132;SDS011;57495;49.922;7.966;2022-08-11T02:17:48;6.60;;;3.33;;
70132;SDS011;57495;49.922;7.966;2022-08-11T02:19:59;5.20;;;3.10;;
70132;SDS011;57495;49.922;7.966;2022-08-11T02:22:29;5.75;;;3.40;;
70132;SDS011;57495;49.922;7.966;2022-08-11T02:24:57;10.27;;;3.00;;
70132;SDS011;57495;49.922;7.966;2022-08-11T02:27:04;5.47;;;2.92;;
70132;SDS011;57495;49.922;7.966;2022-08-11T02:29:15;5.95;;;3.10;;
70132;SDS011;57495;49.922;7.966;2022-08-11T02:31:24;6.30;;;2.73;;
70132;SDS011;57495;49.922;7.966;2022-08-11T02:33:56;8.32;;;2.88;;
70132;SDS011;57495;49.922;7.966;2022-08-11T02:36:06;5.80;;;3.47;;
70132;SDS011;57495;49.922;7.966;2022-08-11T02:38:18;5.32;;;3.20;;
70132;SDS011;57495;49.922;7.966;2022-08-11T02:40:29;6.30;;;3.20;;
70132;SDS011;57495;49.922;7.966;2022-08-11T02:42:37;6.47;;;3.30;;
70132;SDS011;57495;49.922;7.966;2022-08-11T02:44:49;6.95;;;3.20;;
70132;SDS011;57495;49.922;7.966;2022-08-11T02:47:06;6.35;;;3.22;;
70132;SDS011;57495;49.922;7.966;2022-08-11T02:49:13;6.80;;;3.00;;
70132;SDS011;57495;49.922;7.966;2022-08-11T02:51:48;5.70;;;3.03;;
70132;SDS011;57495;49.922;7.966;2022-08-11T02:54:07;7.53;;;3.50;;
70132;SDS011;57495;49.922;7.966;2022-08-11T02:56:17;6.68;;;3.30;;
70132;SDS011;57495;49.922;7.966;2022-08-11T02:58:30;7.95;;;3.58;;
70132;SDS011;57495;49.922;7.966;2022-08-11T03:00:42;5.97;;;3.13;;
70132;SDS011;57495;49.922;7.966;2022-08-11T03:03:01;6.25;;;3.38;;
70132;SDS011;57495;49.922;7.966;2022-08-11T03:05:20;6.57;;;2.90;;
70132;SDS011;57495;49.922;7.966;2022-08-11T03:07:30;5.47;;;3.15;;
70132;SDS011;57495;49.922;7.966;2022-08-11T03:09:43;6.25;;;3.20;;
70132;SDS011;57495;49.922;7.966;2022-08-11T03:11:52;5.75;;;3.45;;
70132;SDS011;57495;49.922;7.966;2022-08-11T03:14:19;5.88;;;3.33;;
70132;SDS011;57495;49.922;7.966;2022-08-11T03:16:45;6.37;;;3.27;;
70132;SDS011;57495;49.922;7.966;2022-08-11T03:18:55;5.22;;;2.85;;
70132;SDS011;57495;49.922;7.966;2022-08-11T03:21:10;5.22;;;3.83;;
70132;SDS011;57495;49.922;7.966;2022-08-11T03:23:19;5.20;;;3.30;;
70132;SDS011;57495;49.922;7.966;2022-08-11T03:25:30;7.43;;;3.55;;
70132;SDS011;57495;49.922;7.966;2022-08-11T03:27:45;7.40;;;3.97;;
70132;SDS011;57495;49.922;7.966;2022-08-11T03:29:57;7.88;;;3.53;;
70132;SDS011;57495;49.922;7.966;2022-08-11T03:32:06;5.97;;;3.60;;
70132;SDS011;57495;49.922;7.966;2022-08-11T03:34:20;6.18;;;3.70;;
70132;SDS011;57495;49.922;7.966;2022-08-11T03:36:32;6.40;;;3.70;;
70132;SDS011;57495;49.922;7.966;2022-08-11T03:39:00;9.40;;;3.63;;
70132;SDS011;57495;49.922;7.966;2022-08-11T03:41:16;6.30;;;3.70;;
70132;SDS011;57495;49.922;7.966;2022-08-11T03:43:47;6.22;;;3.78;;
70132;SDS011;57495;49.922;7.966;2022-08-11T03:45:57;8.05;;;4.13;;
70132;SDS011;57495;49.922;7.966;2022-08-11T03:48:09;5.38;;;3.53;;
70132;SDS011;57495;49.922;7.966;2022-08-11T03:50:23;7.03;;;3.03;;
70132;SDS011;57495;49.922;7.966;2022-08-11T03:52:40;5.63;;;3.20;;
70132;SDS011;57495;49.922;7.966;2022-08-11T03:54:53;6.72;;;3.55;;
70132;SDS011;57495;49.922;7.966;2022-08-11T03:57:12;7.97;;;3.90;;
70132;SDS011;57495;49.922;7.966;2022-08-11T04:05:04;5.53;;;3.53;;
70132;SDS011;57495;49.922;7.966;2022-08-11T04:07:38;7.20;;;3.45;;
70132;SDS011;57495;49.922;7.966;2022-08-11T04:10:10;9.48;;;4.03;;
70132;SDS011;57495;49.922;7.966;2022-08-11T04:12:51;6.45;;;3.55;;
70132;SDS011;57495;49.922;7.966;2022-08-11T04:15:18;5.80;;;3.40;;
70132;SDS011;57495;49.922;7.966;2022-08-11T04:20:22;7.30;;;3.25;;
70132;SDS011;57495;49.922;7.966;2022-08-11T04:22:53;7.40;;;3.35;;
70132;SDS011;57495;49.922;7.966;2022-08-11T04:25:20;6.47;;;3.53;;
70132;SDS011;57495;49.922;7.966;2022-08-11T04:27:51;6.23;;;3.90;;
70132;SDS011;57495;49.922;7.966;2022-08-11T04:30:07;8.30;;;3.65;;
70132;SDS011;57495;49.922;7.966;2022-08-11T04:32:19;7.03;;;3.45;;
70132;SDS011;57495;49.922;7.966;2022-08-11T04:34:35;5.28;;;3.63;;
70132;SDS011;57495;49.922;7.966;2022-08-11T04:39:33;6.00;;;3.57;;
70132;SDS011;57495;49.922;7.966;2022-08-11T04:44:47;6.75;;;3.40;;
70132;SDS011;57495;49.922;7.966;2022-08-11T04:47:12;5.90;;;3.63;;
70132;SDS011;57495;49.922;7.966;2022-08-11T04:49:47;5.30;;;3.28;;
70132;SDS011;57495;49.922;7.966;2022-08-11T04:52:21;6.93;;;3.50;;
70132;SDS011;57495;49.922;7.966;2022-08-11T04:54:53;7.18;;;3.58;;
70132;SDS011;57495;49.922;7.966;2022-08-11T04:57:27;40.55;;;4.90;;
70132;SDS011;57495;49.922;7.966;2022-08-11T05:00:03;25.00;;;4.70;;
70132;SDS011;57495;49.922;7.966;2022-08-11T05:05:14;10.90;;;4.57;;
70132;SDS011;57495;49.922;7.966;2022-08-11T05:10:21;6.85;;;4.50;;
70132;SDS011;57495;49.922;7.966;2022-08-11T05:12:40;9.25;;;4.90;;
70132;SDS011;57495;49.922;7.966;2022-08-11T05:14:46;7.07;;;4.22;;
70132;SDS011;57495;49.922;7.966;2022-08-11T05:17:10;7.07;;;4.70;;
70132;SDS011;57495;49.922;7.966;2022-08-11T05:19:32;7.10;;;4.47;;
70132;SDS011;57495;49.922;7.966;2022-08-11T05:21:52;7.07;;;4.40;;
70132;SDS011;57495;49.922;7.966;2022-08-11T05:24:15;8.45;;;4.53;;
70132;SDS011;57495;49.922;7.966;2022-08-11T05:26:49;8.10;;;3.97;;
70132;SDS011;57495;49.922;7.966;2022-08-11T05:29:34;11.73;;;4.70;;
70132;SDS011;57495;49.922;7.966;2022-08-11T05:31:57;8.95;;;4.20;;
70132;SDS011;57495;49.922;7.966;2022-08-11T05:34:20;9.15;;;4.13;;
70132;SDS011;57495;49.922;7.966;2022-08-11T05:36:42;7.80;;;4.30;;
70132;SDS011;57495;49.922;7.966;2022-08-11T05:38:48;9.73;;;4.80;;
70132;SDS011;57495;49.922;7.966;2022-08-11T05:41:12;7.20;;;4.47;;
70132;SDS011;57495;49.922;7.966;2022-08-11T05:43:32;9.20;;;4.78;;
70132;SDS011;57495;49.922;7.966;2022-08-11T05:45:55;8.68;;;4.85;;
70132;SDS011;57495;49.922;7.966;2022-08-11T05:48:16;8.05;;;4.75;;
70132;SDS011;57495;49.922;7.966;2022-08-11T05:50:39;8.23;;;4.50;;
70132;SDS011;57495;49.922;7.966;2022-08-11T05:53:00;7.17;;;4.30;;
70132;SDS011;57495;49.922;7.966;2022-08-11T05:55:20;10.15;;;4.47;;
70132;SDS011;57495;49.922;7.966;2022-08-11T05:57:42;7.43;;;4.70;;
70132;SDS011;57495;49.922;7.966;2022-08-11T05:59:43;8.75;;;4.68;;
70132;SDS011;57495;49.922;7.966;2022-08-11T06:01:46;8.88;;;4.07;;
70132;SDS011;57495;49.922;7.966;2022-08-11T06:03:49;8.53;;;4.53;;
70132;SDS011;57495;49.922;7.966;2022-08-11T06:06:11;6.93;;;4.18;;
70132;SDS011;57495;49.922;7.966;2022-08-11T06:08:12;8.55;;;4.07;;
70132;SDS011;57495;49.922;7.966;2022-08-11T06:10:23;12.18;;;4.78;;
70132;SDS011;57495;49.922;7.966;2022-08-11T06:12:27;6.68;;;4.28;;
70132;SDS011;57495;49.922;7.966;2022-08-11T06:14:31;9.00;;;4.40;;
70132;SDS011;57495;49.922;7.966;2022-08-11T06:16:35;8.32;;;4.20;;
70132;SDS011;57495;49.922;7.966;2022-08-11T06:18:38;9.50;;;4.63;;
70132;SDS011;57495;49.922;7.966;2022-08-11T06:20:44;8.38;;;3.67;;
70132;SDS011;57495;49.922;7.966;2022-08-11T06:22:54;8.90;;;3.42;;
70132;SDS011;57495;49.922;7.966;2022-08-11T06:24:58;6.23;;;3.73;;
70132;SDS011;57495;49.922;7.966;2022-08-11T06:27:02;7.80;;;3.83;;
70132;SDS011;57495;49.922;7.966;2022-08-11T06:29:05;6.55;;;3.65;;
70132;SDS011;57495;49.922;7.966;2022-08-11T06:31:10;9.45;;;3.35;;
70132;SDS011;57495;49.922;7.966;2022-08-11T06:33:14;6.80;;;3.22;;
70132;SDS011;57495;49.922;7.966;2022-08-11T06:35:20;5.90;;;3.10;;
70132;SDS011;57495;49.922;7.966;2022-08-11T06:37:28;9.73;;;3.70;;
70132;SDS011;57495;49.922;7.966;2022-08-11T06:39:44;7.20;;;3.10;;
70132;SDS011;57495;49.922;7.966;2022-08-11T06:41:52;8.25;;;3.38;;
70132;SDS011;57495;49.922;7.966;2022-08-11T06:44:01;8.35;;;3.47;;
70132;SDS011;57495;49.922;7.966;2022-08-11T06:46:09;6.00;;;2.70;;
70132;SDS011;57495;49.922;7.966;2022-08-11T06:48:14;6.85;;;3.28;;
70132;SDS011;57495;49.922;7.966;2022-08-11T06:50:17;5.90;;;3.10;;
70132;SDS011;57495;49.922;7.966;2022-08-11T06:52:37;6.80;;;3.22;;
70132;SDS011;57495;49.922;7.966;2022-08-11T06:54:43;9.32;;;3.08;;
70132;SDS011;57495;49.922;7.966;2022-08-11T06:56:51;6.07;;;3.07;;
70132;SDS011;57495;49.922;7.966;2022-08-11T06:59:10;5.97;;;2.83;;
70132;SDS011;57495;49.922;7.966;2022-08-11T07:01:33;6.78;;;3.03;;
70132;SDS011;57495;49.922;7.966;2022-08-11T07:03:47;6.75;;;3.05;;
70132;SDS011;57495;49.922;7.966;2022-08-11T07:05:57;9.10;;;3.25;;
70132;SDS011;57495;49.922;7.966;2022-08-11T07:08:15;7.57;;;3.17;;
70132;SDS011;57495;49.922;7.966;2022-08-11T07:11:04;4.93;;;2.60;;
70132;SDS011;57495;49.922;7.966;2022-08-11T07:13:38;6.63;;;3.47;;
70132;SDS011;57495;49.922;7.966;2022-08-11T07:15:58;5.65;;;2.97;;
70132;SDS011;57495;49.922;7.966;2022-08-11T07:18:01;8.43;;;3.40;;
70132;SDS011;57495;49.922;7.966;2022-08-11T07:20:24;7.07;;;3.60;;
70132;SDS011;57495;49.922;7.966;2022-08-11T07:22:45;5.15;;;3.20;;
70132;SDS011;57495;49.922;7.966;2022-08-11T07:25:11;7.40;;;2.90;;
70132;SDS011;57495;49.922;7.966;2022-08-11T07:27:42;8.82;;;3.28;;
70132;SDS011;57495;49.922;7.966;2022-08-11T07:30:05;9.38;;;2.85;;
70132;SDS011;57495;49.922;7.966;2022-08-11T07:32:12;4.03;;;2.30;;
70132;SDS011;57495;49.922;7.966;2022-08-11T07:34:18;5.90;;;2.70;;
70132;SDS011;57495;49.922;7.966;2022-08-11T07:36:22;7.70;;;3.10;;
70132;SDS011;57495;49.922;7.966;2022-08-11T07:38:29;8.38;;;3.00;;
70132;SDS011;57495;49.922;7.966;2022-08-11T07:40:43;5.72;;;2.88;;
70132;SDS011;57495;49.922;7.966;2022-08-11T07:42:47;8.20;;;3.03;;
70132;SDS011;57495;49.922;7.966;2022-08-11T07:44:50;6.65;;;2.70;;
70132;SDS011;57495;49.922;7.966;2022-08-11T07:47:10;5.40;;;2.55;;
70132;SDS011;57495;49.922;7.966;2022-08-11T07:49:30;6.03;;;2.58;;
70132;SDS011;57495;49.922;7.966;2022-08-11T07:51:50;5.00;;;2.90;;
70132;SDS011;57495;49.922;7.966;2022-08-11T07:54:11;5.80;;;2.80;;
70132;SDS011;57495;49.922;7.966;2022-08-11T07:56:15;6.07;;;3.10;;
70132;SDS011;57495;49.922;7.966;2022-08-11T07:58:20;6.90;;;3.13;;
70132;SDS011;57495;49.922;7.966;2022-08-11T08:00:42;5.75;;;2.78;;
70132;SDS011;57495;49.922;7.966;2022-08-11T08:03:03;6.07;;;2.83;;
70132;SDS011;57495;49.922;7.966;2022-08-11T08:05:23;5.37;;;2.50;;
70132;SDS011;57495;49.922;7.966;2022-08-11T08:07:43;6.57;;;2.93;;
70132;SDS011;57495;49.922;7.966;2022-08-11T08:10:03;7.05;;;3.10;;
70132;SDS011;57495;49.922;7.966;2022-08-11T08:12:24;7.22;;;3.17;;
70132;SDS011;57495;49.922;7.966;2022-08-11T08:14:45;8.07;;;2.65;;
70132;SDS011;57495;49.922;7.966;2022-08-11T08:17:04;6.93;;;2.83;;
70132;SDS011;57495;49.922;7.966;2022-08-11T08:19:26;8.90;;;2.70;;
70132;SDS011;57495;49.922;7.966;2022-08-11T08:21:28;5.50;;;2.70;;
70132;SDS011;57495;49.922;7.966;2022-08-11T08:23:30;5.13;;;2.63;;
70132;SDS011;57495;49.922;7.966;2022-08-11T08:25:35;6.30;;;2.90;;
70132;SDS011;57495;49.922;7.966;2022-08-11T08:27:39;4.90;;;2.50;;
70132;SDS011;57495;49.922;7.966;2022-08-11T08:29:42;4.65;;;2.72;;
70132;SDS011;57495;49.922;7.966;2022-08-11T08:32:05;5.30;;;2.57;;
70132;SDS011;57495;49.922;7.966;2022-08-11T08:34:10;8.97;;;3.10;;
70132;SDS011;57495;49.922;7.966;2022-08-11T08:36:14;5.68;;;2.47;;
70132;SDS011;57495;49.922;7.966;2022-08-11T08:38:15;8.00;;;3.10;;
70132;SDS011;57495;49.922;7.966;2022-08-11T08:40:18;5.47;;;2.40;;
70132;SDS011;57495;49.922;7.966;2022-08-11T08:42:20;8.38;;;3.42;;
70132;SDS011;57495;49.922;7.966;2022-08-11T08:44:26;6.47;;;2.78;;
70132;SDS011;57495;49.922;7.966;2022-08-11T08:46:31;7.80;;;2.80;;
70132;SDS011;57495;49.922;7.966;2022-08-11T08:48:36;5.55;;;2.83;;
70132;SDS011;57495;49.922;7.966;2022-08-11T08:50:44;7.43;;;3.03;;
70132;SDS011;57495;49.922;7.966;2022-08-11T08:53:08;6.47;;;3.08;;
70132;SDS011;57495;49.922;7.966;2022-08-11T08:55:13;6.15;;;2.22;;
70132;SDS011;57495;49.922;7.966;2022-08-11T08:57:18;6.55;;;2.83;;
70132;SDS011;57495;49.922;7.966;2022-08-11T08:59:23;7.70;;;2.58;;
70132;SDS011;57495;49.922;7.966;2022-08-11T09:01:27;5.70;;;2.80;;
70132;SDS011;57495;49.922;7.966;2022-08-11T09:03:31;8.80;;;2.63;;
70132;SDS011;57495;49.922;7.966;2022-08-11T09:05:37;9.43;;;2.30;;
70132;SDS011;57495;49.922;7.966;2022-08-11T09:07:38;8.55;;;2.83;;
70132;SDS011;57495;49.922;7.966;2022-08-11T09:09:41;5.25;;;2.83;;
70132;SDS011;57495;49.922;7.966;2022-08-11T09:11:43;7.05;;;2.92;;
70132;SDS011;57495;49.922;7.966;2022-08-11T09:13:52;6.13;;;2.63;;
70132;SDS011;57495;49.922;7.966;2022-08-11T09:15:55;4.20;;;2.20;;
70132;SDS011;57495;49.922;7.966;2022-08-11T09:17:58;5.28;;;2.58;;
70132;SDS011;57495;49.922;7.966;2022-08-11T09:20:07;5.78;;;2.67;;
70132;SDS011;57495;49.922;7.966;2022-08-11T09:22:11;6.47;;;2.95;;
70132;SDS011;57495;49.922;7.966;2022-08-11T09:24:31;5.73;;;2.60;;
70132;SDS011;57495;49.922;7.966;2022-08-11T09:26:51;7.40;;;3.17;;
70132;SDS011;57495;49.922;7.966;2022-08-11T09:29:02;7.97;;;2.88;;
70132;SDS011;57495;49.922;7.966;2022-08-11T09:31:04;7.88;;;2.55;;
70132;SDS011;57495;49.922;7.966;2022-08-11T09:33:07;6.35;;;2.72;;
70132;SDS011;57495;49.922;7.966;2022-08-11T09:35:13;6.85;;;2.80;;
70132;SDS011;57495;49.922;7.966;2022-08-11T09:37:16;6.25;;;2.67;;
70132;SDS011;57495;49.922;7.966;2022-08-11T09:39:37;5.47;;;2.70;;
70132;SDS011;57495;49.922;7.966;2022-08-11T09:41:59;5.10;;;2.65;;
70132;SDS011;57495;49.922;7.966;2022-08-11T09:44:03;9.70;;;3.17;;
70132;SDS011;57495;49.922;7.966;2022-08-11T09:46:23;7.93;;;3.27;;
70132;SDS011;57495;49.922;7.966;2022-08-11T09:48:28;5.63;;;2.90;;
70132;SDS011;57495;49.922;7.966;2022-08-11T09:50:33;8.10;;;2.75;;
70132;SDS011;57495;49.922;7.966;2022-08-11T09:52:37;5.47;;;2.53;;
70132;SDS011;57495;49.922;7.966;2022-08-11T09:54:40;6.45;;;2.35;;
70132;SDS011;57495;49.922;7.966;2022-08-11T09:56:43;4.18;;;2.45;;
70132;SDS011;57495;49.922;7.966;2022-08-11T09:59:02;6.32;;;3.08;;
70132;SDS011;57495;49.922;7.966;2022-08-11T10:01:05;7.15;;;2.45;;
70132;SDS011;57495;49.922;7.966;2022-08-11T10:03:25;4.47;;;2.40;;
70132;SDS011;57495;49.922;7.966;2022-08-11T10:05:28;5.03;;;2.40;;
70132;SDS011;57495;49.922;7.966;2022-08-11T10:07:50;6.60;;;2.63;;
70132;SDS011;57495;49.922;7.966;2022-08-11T10:09:55;7.35;;;2.35;;
70132;SDS011;57495;49.922;7.966;2022-08-11T10:12:01;5.15;;;2.40;;
70132;SDS011;57495;49.922;7.966;2022-08-11T10:14:06;4.43;;;2.40;;
70132;SDS011;57495;49.922;7.966;2022-08-11T10:16:28;4.63;;;2.40;;
70132;SDS011;57495;49.922;7.966;2022-08-11T10:18:36;5.15;;;2.47;;
70132;SDS011;57495;49.922;7.966;2022-08-11T10:20:41;4.28;;;2.40;;
70132;SDS011;57495;49.922;7.966;2022-08-11T10:22:50;7.28;;;3.00;;
70132;SDS011;57495;49.922;7.966;2022-08-11T10:25:09;4.30;;;2.35;;
70132;SDS011;57495;49.922;7.966;2022-08-11T10:27:31;6.20;;;2.40;;
70132;SDS011;57495;49.922;7.966;2022-08-11T10:29:36;4.40;;;2.30;;
70132;SDS011;57495;49.922;7.966;2022-08-11T10:31:57;5.15;;;2.30;;
70132;SDS011;57495;49.922;7.966;2022-08-11T10:34:18;5.35;;;2.22;;
70132;SDS011;57495;49.922;7.966;2022-08-11T10:36:23;4.78;;;2.30;;
70132;SDS011;57495;49.922;7.966;2022-08-11T10:38:26;5.85;;;2.65;;
70132;SDS011;57495;49.922;7.966;2022-08-11T10:40:30;5.35;;;2.03;;
70132;SDS011;57495;49.922;7.966;2022-08-11T10:42:32;3.55;;;1.95;;
70132;SDS011;57495;49.922;7.966;2022-08-11T10:44:57;6.57;;;2.40;;
70132;SDS011;57495;49.922;7.966;2022-08-11T10:47:01;5.68;;;2.20;;
70132;SDS011;57495;49.922;7.966;2022-08-11T10:49:22;4.97;;;2.10;;
70132;SDS011;57495;49.922;7.966;2022-08-11T10:51:25;3.40;;;2.30;;
70132;SDS011;57495;49.922;7.966;2022-08-11T10:53:47;3.75;;;2.33;;
70132;SDS011;57495;49.922;7.966;2022-08-11T10:56:09;5.63;;;2.33;;
70132;SDS011;57495;49.922;7.966;2022-08-11T10:58:29;5.70;;;2.40;;
70132;SDS011;57495;49.922;7.966;2022-08-11T11:00:50;6.72;;;2.70;;
70132;SDS011;57495;49.922;7.966;2022-08-11T11:02:55;4.47;;;2.50;;
70132;SDS011;57495;49.922;7.966;2022-08-11T11:05:00;5.85;;;2.42;;
70132;SDS011;57495;49.922;7.966;2022-08-11T11:07:09;4.22;;;2.60;;
70132;SDS011;57495;49.922;7.966;2022-08-11T11:09:20;6.45;;;2.55;;
70132;SDS011;57495;49.922;7.966;2022-08-11T11:11:30;4.97;;;3.20;;
70132;SDS011;57495;49.922;7.966;2022-08-11T11:13:53;5.90;;;2.87;;
70132;SDS011;57495;49.922;7.966;2022-08-11T11:16:12;5.45;;;2.92;;
70132;SDS011;57495;49.922;7.966;2022-08-11T11:18:40;5.20;;;2.92;;
70132;SDS011;57495;49.922;7.966;2022-08-11T11:20:44;6.32;;;3.00;;
70132;SDS011;57495;49.922;7.966;2022-08-11T11:22:48;4.63;;;3.30;;
70132;SDS011;57495;49.922;7.966;2022-08-11T11:24:55;8.00;;;3.30;;
70132;SDS011;57495;49.922;7.966;2022-08-11T11:27:04;4.13;;;2.60;;
70132;SDS011;57495;49.922;7.966;2022-08-11T11:29:19;5.50;;;2.97;;
70132;SDS011;57495;49.922;7.966;2022-08-11T11:31:45;4.80;;;2.75;;
70132;SDS011;57495;49.922;7.966;2022-08-11T11:33:57;6.67;;;2.90;;
70132;SDS011;57495;49.922;7.966;2022-08-11T11:36:13;5.33;;;3.00;;
70132;SDS011;57495;49.922;7.966;2022-08-11T11:38:22;9.68;;;2.92;;
70132;SDS011;57495;49.922;7.966;2022-08-11T11:40:25;5.80;;;2.50;;
70132;SDS011;57495;49.922;7.966;2022-08-11T11:42:28;5.60;;;2.67;;
70132;SDS011;57495;49.922;7.966;2022-08-11T11:44:30;5.30;;;2.47;;
70132;SDS011;57495;49.922;7.966;2022-08-11T11:46:33;5.78;;;2.38;;
70132;SDS011;57495;49.922;7.966;2022-08-11T11:48:35;8.43;;;2.50;;
70132;SDS011;57495;49.922;7.966;2022-08-11T11:50:37;4.75;;;2.78;;
70132;SDS011;57495;49.922;7.966;2022-08-11T11:52:39;5.85;;;2.75;;
70132;SDS011;57495;49.922;7.966;2022-08-11T11:54:42;4.53;;;2.77;;
70132;SDS011;57495;49.922;7.966;2022-08-11T11:56:46;5.80;;;2.67;;
70132;SDS011;57495;49.922;7.966;2022-08-11T11:58:52;5.93;;;3.10;;
70132;SDS011;57495;49.922;7.966;2022-08-11T12:01:12;5.10;;;2.95;;
70132;SDS011;57495;49.922;7.966;2022-08-11T12:03:16;6.40;;;2.92;;
70132;SDS011;57495;49.922;7.966;2022-08-11T12:05:19;4.30;;;3.08;;
70132;SDS011;57495;49.922;7.966;2022-08-11T12:07:22;4.97;;;2.70;;
70132;SDS011;57495;49.922;7.966;2022-08-11T12:09:41;6.30;;;3.28;;
70132;SDS011;57495;49.922;7.966;2022-08-11T12:11:43;5.80;;;2.90;;
70132;SDS011;57495;49.922;7.966;2022-08-11T12:14:04;6.25;;;3.15;;
70132;SDS011;57495;49.922;7.966;2022-08-11T12:16:07;8.20;;;3.40;;
70132;SDS011;57495;49.922;7.966;2022-08-11T12:18:10;6.03;;;3.40;;
70132;SDS011;57495;49.922;7.966;2022-08-11T12:20:12;5.32;;;3.20;;
70132;SDS011;57495;49.922;7.966;2022-08-11T12:22:18;7.78;;;3.53;;
70132;SDS011;57495;49.922;7.966;2022-08-11T12:24:37;4.90;;;3.10;;
70132;SDS011;57495;49.922;7.966;2022-08-11T12:26:56;5.47;;;2.70;;
70132;SDS011;57495;49.922;7.966;2022-08-11T12:29:18;5.78;;;2.92;;
70132;SDS011;57495;49.922;7.966;2022-08-11T12:31:27;6.07;;;3.75;;
70132;SDS011;57495;49.922;7.966;2022-08-11T12:33:29;4.60;;;3.42;;
70132;SDS011;57495;49.922;7.966;2022-08-11T12:35:31;5.28;;;3.10;;
70132;SDS011;57495;49.922;7.966;2022-08-11T12:37:34;4.87;;;2.70;;
70132;SDS011;57495;49.922;7.966;2022-08-11T12:39:41;6.10;;;2.90;;
70132;SDS011;57495;49.922;7.966;2022-08-11T12:42:02;5.07;;;3.10;;
70132;SDS011;57495;49.922;7.966;2022-08-11T12:44:24;4.38;;;2.72;;
70132;SDS011;57495;49.922;7.966;2022-08-11T12:46:44;4.82;;;3.05;;
70132;SDS011;57495;49.922;7.966;2022-08-11T12:48:49;6.28;;;3.92;;
70132;SDS011;57495;49.922;7.966;2022-08-11T12:51:18;7.43;;;3.53;;
70132;SDS011;57495;49.922;7.966;2022-08-11T12:53:41;5.60;;;3.60;;
70132;SDS011;57495;49.922;7.966;2022-08-11T12:55:46;5.78;;;3.20;;
70132;SDS011;57495;49.922;7.966;2022-08-11T12:58:07;7.03;;;3.10;;
70132;SDS011;57495;49.922;7.966;2022-08-11T13:00:18;5.37;;;3.20;;
70132;SDS011;57495;49.922;7.966;2022-08-11T13:02:38;5.43;;;3.03;;
70132;SDS011;57495;49.922;7.966;2022-08-11T13:04:58;5.10;;;2.88;;
70132;SDS011;57495;49.922;7.966;2022-08-11T13:07:00;5.22;;;2.80;;
70132;SDS011;57495;49.922;7.966;2022-08-11T13:09:02;6.25;;;3.08;;
70132;SDS011;57495;49.922;7.966;2022-08-11T13:11:05;4.47;;;3.10;;
70132;SDS011;57495;49.922;7.966;2022-08-11T13:13:40;7.82;;;2.50;;
70132;SDS011;57495;49.922;7.966;2022-08-11T13:15:45;6.28;;;3.00;;
70132;SDS011;57495;49.922;7.966;2022-08-11T13:17:49;6.95;;;3.40;;
70132;SDS011;57495;49.922;7.966;2022-08-11T13:19:52;6.15;;;2.92;;
70132;SDS011;57495;49.922;7.966;2022-08-11T13:21:53;4.43;;;3.00;;
70132;SDS011;57495;49.922;7.966;2022-08-11T13:23:56;5.53;;;2.87;;
70132;SDS011;57495;49.922;7.966;2022-08-11T13:25:58;4.60;;;3.05;;
70132;SDS011;57495;49.922;7.966;2022-08-11T13:28:01;5.97;;;2.72;;
70132;SDS011;57495;49.922;7.966;2022-08-11T13:30:04;5.78;;;3.30;;
70132;SDS011;57495;49.922;7.966;2022-08-11T13:32:28;6.97;;;3.55;;
70132;SDS011;57495;49.922;7.966;2022-08-11T13:34:29;6.10;;;3.13;;
70132;SDS011;57495;49.922;7.966;2022-08-11T13:36:31;6.63;;;3.33;;
70132;SDS011;57495;49.922;7.966;2022-08-11T13:38:33;5.97;;;3.45;;
70132;SDS011;57495;49.922;7.966;2022-08-11T13:40:35;6.25;;;3.00;;
70132;SDS011;57495;49.922;7.966;2022-08-11T13:42:38;5.63;;;3.30;;
70132;SDS011;57495;49.922;7.966;2022-08-11T13:44:40;6.63;;;3.43;;
70132;SDS011;57495;49.922;7.966;2022-08-11T13:46:43;5.97;;;2.90;;
70132;SDS011;57495;49.922;7.966;2022-08-11T13:48:46;5.35;;;3.15;;
70132;SDS011;57495;49.922;7.966;2022-08-11T13:50:49;7.38;;;2.80;;
70132;SDS011;57495;49.922;7.966;2022-08-11T13:53:08;4.70;;;3.03;;
70132;SDS011;57495;49.922;7.966;2022-08-11T13:55:11;5.35;;;2.95;;
70132;SDS011;57495;49.922;7.966;2022-08-11T13:57:20;6.90;;;3.33;;